createdAt,value
2019-05-16T00:01:54.844Z,8.26
2019-05-16T00:04:25.303Z,8.16
2019-05-16T00:06:55.719Z,8.08
2019-05-16T00:09:28.579Z,8.04
2019-05-16T00:11:58.428Z,8.03
2019-05-16T00:14:28.789Z,8.03
2019-05-16T00:16:59.352Z,8.07
2019-05-16T00:19:29.961Z,8.07
2019-05-16T00:22:00.544Z,8.09
2019-05-16T00:24:30.918Z,8.13
2019-05-16T00:27:01.704Z,8.13
2019-05-16T00:29:32.152Z,8.12
2019-05-16T00:32:02.742Z,8.08
2019-05-16T00:34:33.154Z,8.06
2019-05-16T00:37:04.023Z,8.02
2019-05-16T00:39:34.426Z,8.01
2019-05-16T00:42:04.698Z,8.08
2019-05-16T00:44:35.229Z,8.17
2019-05-16T00:47:05.575Z,8.23
2019-05-16T00:49:35.837Z,8.26
2019-05-16T00:52:07.755Z,8.28
2019-05-16T00:54:38.493Z,8.30
2019-05-16T00:57:11.284Z,8.33
2019-05-16T00:59:42.107Z,8.29
2019-05-16T01:02:15.021Z,8.23
2019-05-16T01:04:45.620Z,8.23
2019-05-16T01:07:18.688Z,8.23
2019-05-16T01:09:50.022Z,8.27
2019-05-16T01:12:20.503Z,8.32
2019-05-16T01:14:52.189Z,8.34
2019-05-16T01:17:22.516Z,8.36
2019-05-16T01:19:52.829Z,8.29
2019-05-16T01:22:23.140Z,8.18
2019-05-16T01:24:58.311Z,8.15
2019-05-16T01:27:30.602Z,8.15
2019-05-16T01:30:01.445Z,8.27
2019-05-16T01:32:33.285Z,8.39
2019-05-16T01:35:04.008Z,8.44
2019-05-16T01:37:34.541Z,8.41
2019-05-16T01:40:05.488Z,8.36
2019-05-16T01:42:35.797Z,8.31
2019-05-16T01:45:08.245Z,8.25
2019-05-16T01:47:39.771Z,8.23
2019-05-16T01:50:10.579Z,8.15
2019-05-16T01:52:40.916Z,8.04
2019-05-16T01:55:11.374Z,7.97
2019-05-16T01:57:41.757Z,7.99
2019-05-16T02:00:12.262Z,8.02
2019-05-16T02:02:42.839Z,7.98
2019-05-16T02:05:14.584Z,7.96
2019-05-16T02:07:44.861Z,7.92
2019-05-16T02:10:18.189Z,7.90
2019-05-16T02:12:49.120Z,7.95
2019-05-16T02:15:20.869Z,8.10
2019-05-16T02:17:51.136Z,8.21
2019-05-16T02:20:22.157Z,8.33
2019-05-16T02:22:52.413Z,8.42
2019-05-16T02:25:23.865Z,8.46
2019-05-16T02:27:54.194Z,8.44
2019-05-16T02:30:25.567Z,8.45
2019-05-16T02:32:55.841Z,8.45
2019-05-16T02:35:26.253Z,8.49
2019-05-16T02:37:56.806Z,8.51
2019-05-16T02:40:31.451Z,8.54
2019-05-16T02:43:02.345Z,8.54
2019-05-16T02:45:32.816Z,8.52
2019-05-16T02:48:04.794Z,8.52
2019-05-16T02:50:35.352Z,8.54
2019-05-16T02:53:05.989Z,8.59
2019-05-16T02:55:36.302Z,8.72
2019-05-16T02:58:06.854Z,8.85
2019-05-16T03:00:42.531Z,8.96
2019-05-16T03:03:13.182Z,9.05
2019-05-16T03:05:44.254Z,9.14
2019-05-16T03:08:20.682Z,9.15
2019-05-16T03:10:52.040Z,9.16
2019-05-16T03:13:23.649Z,9.14
2019-05-16T03:15:55.558Z,9.12
2019-05-16T03:18:30.979Z,9.17
2019-05-16T03:21:04.627Z,9.22
2019-05-16T03:23:34.885Z,9.21
2019-05-16T03:26:06.850Z,9.23
2019-05-16T03:28:37.180Z,9.25
2019-05-16T03:31:14.126Z,9.24
2019-05-16T03:33:48.958Z,9.20
2019-05-16T03:36:14.749Z,9.14
2019-05-16T03:38:44.247Z,9.09
2019-05-16T03:41:14.542Z,9.07
2019-05-16T03:43:45.146Z,9.06
2019-05-16T03:46:15.458Z,9.06
2019-05-16T03:48:46.641Z,9.11
2019-05-16T03:51:21.501Z,9.16
2019-05-16T03:53:51.046Z,9.21
2019-05-16T03:56:22.157Z,9.22
2019-05-16T03:58:55.963Z,9.22
2019-05-16T04:01:26.336Z,9.18
2019-05-16T04:03:56.704Z,9.17
2019-05-16T04:06:31.144Z,9.20
2019-05-16T04:09:03.090Z,9.26
2019-05-16T04:11:33.443Z,9.30
2019-05-16T04:14:04.863Z,9.34
2019-05-16T04:16:35.374Z,9.42
2019-05-16T04:19:06.372Z,9.61
2019-05-16T04:21:36.689Z,9.61
2019-05-16T04:24:12.063Z,9.73
2019-05-16T04:26:41.288Z,9.85
2019-05-16T04:29:15.527Z,9.97
2019-05-16T04:31:46.219Z,9.98
2019-05-16T04:34:20.445Z,9.98
2019-05-16T04:36:51.418Z,10.00
2019-05-16T04:39:26.017Z,9.97
2019-05-16T04:41:56.444Z,9.96
2019-05-16T04:44:26.772Z,9.93
2019-05-16T04:46:57.331Z,9.91
2019-05-16T04:49:31.871Z,9.91
2019-05-16T04:52:01.531Z,9.91
2019-05-16T04:54:31.911Z,9.88
2019-05-16T04:57:02.241Z,9.87
2019-05-16T04:59:32.616Z,9.90
2019-05-16T05:02:05.726Z,9.95
2019-05-16T05:04:36.000Z,10.07
2019-05-16T05:07:06.641Z,10.26
2019-05-16T05:09:36.978Z,10.26
2019-05-16T05:12:07.612Z,10.43
2019-05-16T05:14:37.935Z,10.60
2019-05-16T05:17:10.745Z,10.73
2019-05-16T05:19:43.389Z,10.79
2019-05-16T05:22:13.983Z,10.80
2019-05-16T05:24:44.270Z,10.69
2019-05-16T05:27:16.563Z,10.67
2019-05-16T05:29:46.911Z,10.68
2019-05-16T05:32:19.843Z,10.83
2019-05-16T05:34:50.344Z,11.13
2019-05-16T05:37:20.786Z,11.42
2019-05-16T05:39:51.106Z,11.70
2019-05-16T05:42:21.707Z,11.84
2019-05-16T05:44:52.152Z,11.94
2019-05-16T05:47:24.350Z,12.08
2019-05-16T05:49:54.652Z,12.08
2019-05-16T05:52:27.005Z,12.23
2019-05-16T05:55:00.445Z,12.21
2019-05-16T05:57:31.743Z,12.13
2019-05-16T06:00:02.037Z,12.13
2019-05-16T06:02:35.296Z,12.07
2019-05-16T06:05:06.943Z,12.07
2019-05-16T06:07:37.229Z,12.16
2019-05-16T06:10:10.781Z,12.34
2019-05-16T06:12:42.578Z,12.42
2019-05-16T06:15:13.629Z,12.51
2019-05-16T06:17:45.852Z,12.50
2019-05-16T06:20:20.353Z,12.37
2019-05-16T06:22:51.094Z,12.25
2019-05-16T06:25:22.615Z,12.08
2019-05-16T06:27:54.045Z,12.02
2019-05-16T06:30:24.593Z,11.89
2019-05-16T06:32:55.170Z,11.62
2019-05-16T06:35:25.780Z,11.57
2019-05-16T06:38:00.612Z,11.42
2019-05-16T06:40:31.725Z,11.45
2019-05-16T06:43:02.048Z,11.40
2019-05-16T06:45:36.051Z,11.39
2019-05-16T06:48:10.061Z,11.40
2019-05-16T06:50:40.705Z,11.43
2019-05-16T06:53:11.128Z,11.39
2019-05-16T06:55:41.615Z,11.40
2019-05-16T06:58:11.966Z,11.37
2019-05-16T07:00:42.532Z,11.37
2019-05-16T07:03:12.827Z,11.40
2019-05-16T07:05:44.821Z,11.38
2019-05-16T07:08:15.100Z,11.46
2019-05-16T07:10:45.721Z,11.52
2019-05-16T07:13:16.010Z,11.53
2019-05-16T07:15:50.051Z,11.65
2019-05-16T07:18:22.053Z,11.72
2019-05-16T07:20:54.699Z,11.66
2019-05-16T07:23:25.286Z,11.49
2019-05-16T07:25:55.955Z,11.44
2019-05-16T07:28:30.372Z,11.43
2019-05-16T07:31:14.893Z,11.51
2019-05-16T07:33:35.635Z,11.51
2019-05-16T07:36:06.146Z,11.66
2019-05-16T07:38:36.426Z,11.74
2019-05-16T07:41:13.670Z,11.78
2019-05-16T07:43:40.163Z,11.68
2019-05-16T07:46:16.759Z,11.65
2019-05-16T07:48:51.775Z,11.54
2019-05-16T07:51:26.027Z,11.55
2019-05-16T07:53:56.390Z,11.54
2019-05-16T07:56:26.736Z,11.66
2019-05-16T07:58:57.139Z,11.79
2019-05-16T08:01:30.697Z,11.85
2019-05-16T08:04:01.414Z,11.82
2019-05-16T08:06:34.119Z,11.92
2019-05-16T08:09:07.887Z,11.93
2019-05-16T08:11:40.815Z,11.91
2019-05-16T08:14:10.475Z,11.82
2019-05-16T08:16:41.076Z,11.63
2019-05-16T08:19:13.883Z,11.55
2019-05-16T08:21:44.801Z,11.64
2019-05-16T08:24:20.319Z,11.60
2019-05-16T08:26:51.473Z,11.71
2019-05-16T08:29:22.184Z,11.80
2019-05-16T08:31:53.158Z,11.84
2019-05-16T08:34:23.846Z,11.82
2019-05-16T08:36:54.795Z,11.88
2019-05-16T08:39:30.124Z,11.89
2019-05-16T08:42:08.060Z,11.87
2019-05-16T08:44:36.252Z,11.80
2019-05-16T08:47:11.562Z,11.78
2019-05-16T08:49:42.215Z,11.89
2019-05-16T08:52:13.273Z,12.00
2019-05-16T08:54:50.883Z,12.24
2019-05-16T08:57:27.581Z,12.60
2019-05-16T08:59:52.604Z,12.93
2019-05-16T09:02:32.281Z,13.37
2019-05-16T09:04:55.098Z,13.85
2019-05-16T09:07:31.714Z,13.93
2019-05-16T09:10:00.909Z,14.20
2019-05-16T09:12:34.218Z,14.57
2019-05-16T09:15:07.970Z,14.69
2019-05-16T09:17:38.694Z,15.11
2019-05-16T09:20:12.829Z,15.75
2019-05-16T09:22:42.988Z,16.13
2019-05-16T09:25:13.811Z,15.83
2019-05-16T09:27:46.895Z,15.43
2019-05-16T09:30:17.464Z,15.52
2019-05-16T09:32:54.633Z,15.14
2019-05-16T09:35:27.942Z,14.96
2019-05-16T09:37:58.983Z,14.74
2019-05-16T09:40:29.856Z,14.42
2019-05-16T09:43:03.222Z,14.28
2019-05-16T09:45:34.967Z,14.60
2019-05-16T09:48:09.886Z,14.55
2019-05-16T09:50:43.348Z,14.64
2019-05-16T09:53:13.922Z,14.72
2019-05-16T09:55:46.895Z,15.28
2019-05-16T09:58:18.692Z,16.20
2019-05-16T10:00:49.391Z,16.70
2019-05-16T10:03:22.826Z,16.53
2019-05-16T10:05:57.215Z,16.30
2019-05-16T10:08:28.085Z,16.30
2019-05-16T10:10:58.478Z,16.38
2019-05-16T10:13:29.123Z,16.43
2019-05-16T10:16:02.270Z,16.25
2019-05-16T10:18:32.873Z,16.90
2019-05-16T10:21:04.353Z,17.29
2019-05-16T10:23:36.443Z,16.84
2019-05-16T10:26:06.916Z,17.17
2019-05-16T10:28:38.533Z,17.10
2019-05-16T10:31:09.792Z,16.61
2019-05-16T10:33:40.123Z,17.07
2019-05-16T10:36:11.312Z,17.70
2019-05-16T10:38:48.145Z,18.18
2019-05-16T10:41:20.034Z,18.86
2019-05-16T10:43:51.566Z,20.44
2019-05-16T10:46:22.183Z,22.67
2019-05-16T10:48:54.041Z,26.20
2019-05-16T10:51:26.755Z,27.66
2019-05-16T10:54:08.845Z,27.12
2019-05-16T10:56:29.465Z,27.72
2019-05-16T10:59:37.746Z,29.04
2019-05-16T11:01:36.575Z,26.85
2019-05-16T11:04:07.510Z,25.23
2019-05-16T11:06:38.224Z,24.67
2019-05-16T11:09:08.987Z,24.67
2019-05-16T11:11:39.752Z,23.58
2019-05-16T11:14:10.298Z,24.10
2019-05-16T11:16:40.907Z,24.55
2019-05-16T11:19:18.275Z,24.92
2019-05-16T11:21:46.830Z,26.26
2019-05-16T11:24:19.308Z,26.51
2019-05-16T11:26:53.162Z,26.27
2019-05-16T11:29:23.810Z,25.14
2019-05-16T11:31:54.441Z,23.70
2019-05-16T11:34:27.853Z,22.06
2019-05-16T11:36:58.409Z,21.72
2019-05-16T11:39:29.002Z,22.85
2019-05-16T11:41:59.336Z,21.33
2019-05-16T11:44:29.959Z,22.55
2019-05-16T11:47:00.563Z,22.10
2019-05-16T11:49:31.165Z,21.08
2019-05-16T11:52:01.774Z,20.63
2019-05-16T11:54:32.390Z,19.20
2019-05-16T11:57:02.672Z,18.68
2019-05-16T11:59:33.008Z,18.07
2019-05-16T12:02:03.357Z,17.42
2019-05-16T12:04:33.863Z,17.20
2019-05-16T12:07:07.456Z,17.20
2019-05-16T12:09:47.185Z,16.98
2019-05-16T12:12:11.223Z,17.17
2019-05-16T12:14:42.722Z,17.72
2019-05-16T12:17:16.599Z,18.30
2019-05-16T12:19:49.023Z,18.11
2019-05-16T12:22:20.155Z,17.86
2019-05-16T12:24:50.421Z,18.19
2019-05-16T12:27:31.751Z,18.55
2019-05-16T12:29:58.756Z,18.38
2019-05-16T12:32:28.414Z,18.62
2019-05-16T12:35:01.913Z,18.54
2019-05-16T12:37:33.143Z,17.99
2019-05-16T12:40:03.499Z,17.48
2019-05-16T12:42:36.516Z,17.68
2019-05-16T12:45:08.210Z,18.51
2019-05-16T12:47:40.640Z,18.81
2019-05-16T12:50:12.347Z,19.37
2019-05-16T12:52:47.401Z,19.21
2019-05-16T12:55:17.444Z,19.13
2019-05-16T12:57:48.935Z,19.53
2019-05-16T13:00:20.543Z,19.89
2019-05-16T13:02:52.148Z,20.33
2019-05-16T13:05:22.801Z,20.66
2019-05-16T13:07:54.758Z,20.68
2019-05-16T13:10:27.032Z,19.83
2019-05-16T13:13:00.120Z,19.41
2019-05-16T13:15:31.160Z,19.43
2019-05-16T13:18:03.002Z,19.33
2019-05-16T13:20:33.606Z,18.84
2019-05-16T13:23:13.854Z,18.25
2019-05-16T13:25:37.650Z,18.27
2019-05-16T13:28:10.128Z,17.88
2019-05-16T13:30:42.109Z,17.88
2019-05-16T13:33:13.537Z,17.60
2019-05-16T13:35:43.910Z,17.86
2019-05-16T13:38:16.990Z,17.80
2019-05-16T13:40:46.357Z,16.96
2019-05-16T13:43:17.503Z,16.62
2019-05-16T13:45:48.034Z,15.92
2019-05-16T13:48:18.312Z,15.92
2019-05-16T13:50:48.934Z,16.18
2019-05-16T13:53:20.511Z,15.96
2019-05-16T13:55:51.233Z,15.72
2019-05-16T13:58:21.935Z,15.09
2019-05-16T14:00:52.244Z,15.04
2019-05-16T14:03:22.966Z,15.12
2019-05-16T14:05:58.220Z,15.40
2019-05-16T14:08:30.709Z,15.83
2019-05-16T14:11:02.281Z,16.74
2019-05-16T14:13:32.956Z,17.46
2019-05-16T14:16:07.110Z,18.23
2019-05-16T14:18:38.089Z,18.69
2019-05-16T14:21:08.878Z,18.93
2019-05-16T14:23:39.566Z,18.85
2019-05-16T14:26:10.025Z,18.12
2019-05-16T14:28:44.318Z,17.46
2019-05-16T14:31:12.716Z,17.18
2019-05-16T14:33:43.684Z,17.14
2019-05-16T14:36:16.736Z,16.79
2019-05-16T14:38:47.129Z,16.66
2019-05-16T14:41:19.091Z,16.36
2019-05-16T14:43:50.014Z,16.30
2019-05-16T14:46:21.857Z,16.37
2019-05-16T14:48:52.126Z,16.52
2019-05-16T14:51:22.947Z,16.59
2019-05-16T14:53:53.292Z,16.83
2019-05-16T14:56:26.831Z,16.78
2019-05-16T14:58:57.686Z,16.86
2019-05-16T15:01:28.134Z,16.73
2019-05-16T15:03:58.448Z,16.72
2019-05-16T15:06:31.395Z,17.08
2019-05-16T15:09:02.108Z,17.13
2019-05-16T15:11:34.420Z,17.13
2019-05-16T15:14:07.145Z,17.06
2019-05-16T15:16:37.569Z,17.04
2019-05-16T15:19:08.407Z,16.89
2019-05-16T15:21:38.987Z,16.75
2019-05-16T15:24:09.558Z,16.63
2019-05-16T15:26:40.386Z,16.61
2019-05-16T15:29:11.023Z,16.41
2019-05-16T15:31:43.547Z,16.36
2019-05-16T15:34:15.289Z,16.28
2019-05-16T15:36:46.738Z,16.00
2019-05-16T15:39:19.655Z,15.64
2019-05-16T15:41:50.311Z,15.60
2019-05-16T15:44:20.626Z,15.69
2019-05-16T15:46:56.659Z,15.94
2019-05-16T15:49:30.888Z,15.82
2019-05-16T15:52:02.738Z,15.70
2019-05-16T15:54:34.245Z,15.38
2019-05-16T15:57:06.673Z,15.38
2019-05-16T15:59:38.460Z,15.39
2019-05-16T16:02:09.090Z,15.50
2019-05-16T16:04:41.830Z,15.38
2019-05-16T16:07:12.601Z,15.29
2019-05-16T16:09:43.444Z,15.31
2019-05-16T16:12:14.109Z,15.34
2019-05-16T16:14:46.742Z,15.31
2019-05-16T16:17:17.817Z,15.26
2019-05-16T16:19:49.473Z,15.04
2019-05-16T16:22:20.062Z,15.01
2019-05-16T16:24:50.858Z,15.22
2019-05-16T16:27:21.456Z,15.09
2019-05-16T16:29:51.976Z,14.91
2019-05-16T16:32:22.314Z,14.88
2019-05-16T16:34:52.594Z,14.73
2019-05-16T16:37:22.916Z,14.70
2019-05-16T16:39:53.539Z,14.78
2019-05-16T16:42:24.160Z,14.73
2019-05-16T16:44:56.598Z,14.68
2019-05-16T16:47:28.381Z,14.76
2019-05-16T16:49:59.466Z,14.95
2019-05-16T16:52:30.020Z,14.86
2019-05-16T16:55:01.013Z,14.82
2019-05-16T16:57:31.353Z,14.89
2019-05-16T17:00:02.011Z,14.88
2019-05-16T17:02:34.156Z,14.69
2019-05-16T17:05:11.469Z,14.58
2019-05-16T17:07:39.614Z,14.50
2019-05-16T17:10:10.779Z,14.42
2019-05-16T17:12:42.560Z,14.49
2019-05-16T17:15:16.966Z,14.54
2019-05-16T17:17:47.389Z,14.62
2019-05-16T17:20:18.402Z,14.59
2019-05-16T17:22:49.699Z,14.57
2019-05-16T17:25:20.500Z,14.59
2019-05-16T17:27:52.074Z,14.62
2019-05-16T17:30:23.280Z,14.53
2019-05-16T17:32:54.010Z,14.32
2019-05-16T17:35:26.866Z,14.13
2019-05-16T17:37:57.872Z,14.16
2019-05-16T17:40:28.218Z,14.19
2019-05-16T17:42:58.868Z,14.12
2019-05-16T17:45:29.935Z,13.98
2019-05-16T17:48:00.524Z,13.91
2019-05-16T17:50:31.150Z,13.82
2019-05-16T17:53:01.792Z,13.73
2019-05-16T17:55:32.327Z,13.72
2019-05-16T17:58:07.946Z,13.68
2019-05-16T18:00:35.388Z,13.67
2019-05-16T18:03:06.594Z,13.60
2019-05-16T18:05:39.169Z,13.58
2019-05-16T18:08:09.595Z,13.58
2019-05-16T18:10:40.237Z,13.61
2019-05-16T18:13:10.619Z,13.57
2019-05-16T18:15:41.242Z,13.48
2019-05-16T18:18:12.715Z,13.37
2019-05-16T18:20:54.794Z,13.32
2019-05-16T18:23:16.445Z,13.19
2019-05-16T18:25:47.238Z,13.04
2019-05-16T18:28:17.816Z,12.96
2019-05-16T18:30:48.277Z,12.91
2019-05-16T18:33:18.833Z,12.85
2019-05-16T18:35:49.897Z,12.71
2019-05-16T18:38:21.234Z,12.63
2019-05-16T18:40:56.735Z,12.55
2019-05-16T18:43:27.318Z,12.52
2019-05-16T18:45:58.883Z,12.49
2019-05-16T18:48:29.316Z,12.42
2019-05-16T18:51:02.017Z,12.34
2019-05-16T18:53:32.463Z,12.25
2019-05-16T18:56:02.817Z,12.10
2019-05-16T18:58:33.418Z,12.03
2019-05-16T19:01:03.838Z,12.00
2019-05-16T19:03:34.665Z,11.98
2019-05-16T19:06:07.538Z,11.91
2019-05-16T19:08:38.411Z,11.75
2019-05-16T19:11:09.058Z,11.40
2019-05-16T19:13:39.958Z,11.02
2019-05-16T19:16:10.315Z,10.71
2019-05-16T19:18:41.132Z,10.50
2019-05-16T19:21:11.433Z,10.34
2019-05-16T19:23:42.513Z,10.17
2019-05-16T19:26:13.171Z,10.04
2019-05-16T19:28:46.736Z,9.83
2019-05-16T19:31:17.245Z,9.74
2019-05-16T19:33:48.868Z,9.70
2019-05-16T19:36:19.471Z,9.66
2019-05-16T19:38:52.201Z,9.65
2019-05-16T19:41:22.762Z,9.67
2019-05-16T19:43:57.202Z,9.67
2019-05-16T19:46:27.553Z,9.65
2019-05-16T19:48:59.256Z,9.69
2019-05-16T19:51:29.781Z,9.69
2019-05-16T19:54:01.480Z,9.70
2019-05-16T19:56:31.797Z,9.68
2019-05-16T19:59:02.197Z,9.71
2019-05-16T20:01:32.708Z,9.69
2019-05-16T20:04:03.101Z,9.65
2019-05-16T20:06:33.791Z,9.63
2019-05-16T20:09:07.155Z,9.65
2019-05-16T20:11:37.959Z,9.66
2019-05-16T20:14:08.557Z,9.64
2019-05-16T20:16:38.985Z,9.64
2019-05-16T20:19:09.433Z,9.68
2019-05-16T20:21:40.611Z,9.71
2019-05-16T20:24:11.380Z,9.70
2019-05-16T20:26:41.801Z,9.70
2019-05-16T20:29:12.222Z,9.71
2019-05-16T20:31:42.690Z,9.72
2019-05-16T20:34:17.348Z,9.66
2019-05-16T20:36:47.646Z,9.64
2019-05-16T20:39:18.050Z,9.63
2019-05-16T20:41:48.701Z,9.64
2019-05-16T20:44:19.004Z,9.63
2019-05-16T20:46:50.502Z,9.66
2019-05-16T20:49:20.824Z,9.67
2019-05-16T20:51:51.432Z,9.69
2019-05-16T20:54:22.356Z,9.68
2019-05-16T20:56:53.566Z,9.68
2019-05-16T20:59:26.634Z,9.71
2019-05-16T21:01:58.362Z,9.74
2019-05-16T21:04:29.047Z,9.74
2019-05-16T21:07:07.653Z,9.74
2019-05-16T21:09:33.080Z,9.74
2019-05-16T21:12:03.847Z,9.74
2019-05-16T21:14:34.343Z,9.75
2019-05-16T21:17:06.708Z,9.77
2019-05-16T21:19:39.262Z,9.76
2019-05-16T21:22:08.815Z,9.75
2019-05-16T21:24:39.236Z,9.72
2019-05-16T21:27:09.561Z,9.68
2019-05-16T21:29:40.026Z,9.60
2019-05-16T21:32:10.549Z,9.52
2019-05-16T21:34:41.151Z,9.31
2019-05-16T21:37:17.181Z,9.31
2019-05-16T21:39:43.786Z,9.29
2019-05-16T21:42:16.609Z,9.24
2019-05-16T21:44:47.253Z,9.25
2019-05-16T21:47:19.547Z,9.20
2019-05-16T21:49:49.867Z,9.13
2019-05-16T21:52:20.226Z,9.10
2019-05-16T21:54:51.632Z,9.08
2019-05-16T21:57:22.230Z,9.05
2019-05-16T21:59:54.163Z,9.05
2019-05-16T22:02:26.676Z,9.10
2019-05-16T22:04:58.256Z,9.08
2019-05-16T22:07:33.410Z,9.09
2019-05-16T22:10:02.280Z,9.10
2019-05-16T22:12:34.182Z,9.08
2019-05-16T22:15:06.941Z,9.05
2019-05-16T22:17:38.957Z,9.03
2019-05-16T22:20:12.040Z,9.05
2019-05-16T22:22:42.406Z,9.05
2019-05-16T22:25:13.661Z,9.07
2019-05-16T22:27:48.395Z,9.08
2019-05-16T22:30:19.671Z,9.09
2019-05-16T22:32:50.097Z,9.09
2019-05-16T22:35:22.686Z,9.11
2019-05-16T22:37:58.608Z,9.13
2019-05-16T22:40:26.656Z,9.16
2019-05-16T22:42:57.678Z,9.17
2019-05-16T22:45:30.088Z,9.17
2019-05-16T22:48:00.344Z,9.18
2019-05-16T22:50:31.970Z,9.17
2019-05-16T22:53:02.552Z,9.17
2019-05-16T22:55:33.948Z,9.14
2019-05-16T22:58:07.199Z,9.14
2019-05-16T23:00:40.717Z,9.15
2019-05-16T23:03:09.051Z,9.15
2019-05-16T23:05:39.684Z,9.14
2019-05-16T23:08:10.283Z,9.15
2019-05-16T23:10:40.587Z,9.16
2019-05-16T23:13:11.151Z,9.16
2019-05-16T23:15:41.612Z,9.17
2019-05-16T23:18:12.379Z,9.17
2019-05-16T23:20:42.891Z,9.18
2019-05-16T23:23:13.236Z,9.16
2019-05-16T23:25:45.841Z,9.17
2019-05-16T23:28:16.721Z,9.17
2019-05-16T23:30:47.234Z,9.17
2019-05-16T23:33:24.252Z,9.19
2019-05-16T23:35:54.629Z,9.18
2019-05-16T23:38:27.429Z,9.18
2019-05-16T23:40:57.305Z,9.16
2019-05-16T23:43:28.036Z,9.15
2019-05-16T23:45:58.604Z,9.13
2019-05-16T23:48:30.599Z,9.11
2019-05-16T23:51:00.911Z,9.09
2019-05-16T23:53:32.399Z,9.07
2019-05-16T23:56:02.740Z,9.05
2019-05-16T23:58:36.774Z,9.01
